Time;durP1;ratioP1;P1;durP2;ratioP2;P2;SDS_P1;SDS_P2;PMS_P1;PMS_P2;Temp;Humidity;BMP_temperature;BMP_pressure;BME280_temperature;BME280_humidity;BME280_pressure;Samples;Min_cycle;Max_cycle;Signal;HPM_P1;HPM_P2
2023/09/02 00:00:00;;;;;;;1999.90;999.90;;;14.50;90.80;;;;;;5083781;28;20167;-78
2023/09/02 00:02:26;;;;;;;1999.90;999.90;;;14.30;90.60;;;;;;5081629;28;20510;-78
2023/09/02 00:04:51;;;;;;;1999.90;999.90;;;14.30;90.80;;;;;;5082995;28;20050;-79
2023/09/02 00:07:17;;;;;;;1999.90;999.90;;;14.20;90.70;;;;;;5081953;28;20064;-78
2023/09/02 00:09:43;;;;;;;1999.90;999.90;;;14.20;90.80;;;;;;5081723;28;20036;-77
2023/09/02 00:12:08;;;;;;;1999.90;999.90;;;14.10;90.70;;;;;;5078406;28;20031;-78
2023/09/02 00:14:34;;;;;;;1999.90;999.90;;;14.10;90.80;;;;;;5080712;28;20478;-79
2023/09/02 00:17:00;;;;;;;1999.90;999.90;;;14.00;91.00;;;;;;5084245;28;20032;-78
2023/09/02 00:19:26;;;;;;;1999.90;999.90;;;14.00;90.80;;;;;;5085154;28;20514;-77
2023/09/02 00:21:52;;;;;;;1999.90;999.90;;;14.10;91.10;;;;;;5083299;28;20039;-78
2023/09/02 00:24:18;;;;;;;1999.90;999.90;;;14.10;91.20;;;;;;5076307;28;20585;-77
2023/09/02 00:26:43;;;;;;;1999.90;999.90;;;14.10;91.10;;;;;;5084982;28;20032;-77
2023/09/02 00:29:09;;;;;;;1999.90;999.90;;;14.10;91.20;;;;;;5076093;28;20500;-77
2023/09/02 00:31:35;;;;;;;1999.90;999.90;;;14.10;91.00;;;;;;5084395;28;20020;-79
2023/09/02 00:34:00;;;;;;;1999.90;999.90;;;14.10;91.20;;;;;;5079108;28;20040;-77
2023/09/02 00:36:27;;;;;;;1999.90;999.90;;;14.10;91.20;;;;;;5082167;28;20074;-78
2023/09/02 00:38:53;;;;;;;1999.90;999.90;;;14.10;91.00;;;;;;5075999;28;20165;-77
2023/09/02 00:41:56;;;;;;;1999.90;999.90;;;14.10;91.00;;;;;;5083085;28;20111;-80
2023/09/02 00:44:23;;;;;;;1999.90;999.90;;;14.10;90.90;;;;;;5065619;28;20131;-77
2023/09/02 00:46:49;;;;;;;1999.90;999.90;;;14.00;90.90;;;;;;5080452;28;20047;-78
2023/09/02 00:49:14;;;;;;;1999.90;999.90;;;14.00;91.00;;;;;;5085613;28;20032;-78
2023/09/02 00:51:40;;;;;;;1999.90;999.90;;;14.10;90.80;;;;;;5078811;28;20059;-78
2023/09/02 00:54:06;;;;;;;1999.90;999.90;;;14.10;90.70;;;;;;5084540;28;20049;-78
2023/09/02 00:56:33;;;;;;;1999.90;999.90;;;14.10;90.70;;;;;;5084988;28;20025;-78
2023/09/02 00:59:02;;;;;;;1999.90;999.90;;;14.00;90.80;;;;;;5079399;28;20040;-79
2023/09/02 01:01:29;;;;;;;1999.90;999.90;;;14.10;91.00;;;;;;5085660;28;20043;-78
2023/09/02 01:03:55;;;;;;;1999.90;999.90;;;14.00;91.00;;;;;;5084133;28;20077;-78
2023/09/02 01:06:21;;;;;;;1999.90;999.90;;;14.10;91.20;;;;;;5075048;28;20041;-77
2023/09/02 01:08:47;;;;;;;1999.90;999.90;;;14.00;91.20;;;;;;5083223;28;20039;-81
2023/09/02 01:11:14;;;;;;;1999.90;999.90;;;14.00;91.20;;;;;;5080719;28;20040;-79
2023/09/02 01:13:39;;;;;;;1999.90;999.90;;;14.00;91.20;;;;;;5082684;28;20049;-78
2023/09/02 01:16:05;;;;;;;1999.90;999.90;;;14.00;91.30;;;;;;5078104;28;20086;-78
2023/09/02 01:18:33;;;;;;;1999.90;999.90;;;14.00;91.20;;;;;;5085533;28;20047;-78
2023/09/02 01:21:29;;;;;;;1999.90;999.90;;;13.90;91.30;;;;;;5079469;28;20036;-78
2023/09/02 01:24:26;;;;;;;1999.90;999.90;;;13.90;91.60;;;;;;5076713;28;20017;-79
2023/09/02 01:27:30;;;;;;;1999.90;999.90;;;13.90;91.80;;;;;;5074891;28;20437;-81
2023/09/02 01:30:02;;;;;;;1999.90;999.90;;;13.80;91.80;;;;;;5077023;28;20040;-78
2023/09/02 01:32:33;;;;;;;1999.90;999.90;;;13.80;91.70;;;;;;5082930;28;20125;-77
2023/09/02 01:35:04;;;;;;;1999.90;999.90;;;13.80;91.60;;;;;;5075290;28;20036;-77
2023/09/02 01:37:33;;;;;;;1999.90;999.90;;;13.80;91.70;;;;;;5079968;28;20465;-78
2023/09/02 01:39:59;;;;;;;1999.90;999.90;;;13.80;91.30;;;;;;5079352;28;20127;-77
2023/09/02 01:42:26;;;;;;;1999.90;999.90;;;13.70;91.40;;;;;;5084537;28;20036;-80
2023/09/02 01:44:52;;;;;;;1999.90;999.90;;;13.60;91.20;;;;;;5084143;28;20059;-78
2023/09/02 01:47:18;;;;;;;1999.90;999.90;;;13.50;91.40;;;;;;5077143;28;20040;-77
2023/09/02 01:49:46;;;;;;;1999.90;999.90;;;13.50;91.40;;;;;;5080795;28;20589;-77
2023/09/02 01:52:14;;;;;;;1999.90;999.90;;;13.40;91.40;;;;;;5077875;28;20380;-81
2023/09/02 01:54:40;;;;;;;1999.90;999.90;;;13.40;91.40;;;;;;5085319;28;20044;-78
2023/09/02 01:57:06;;;;;;;1999.90;999.90;;;13.30;91.30;;;;;;5080138;28;20028;-79
2023/09/02 01:59:31;;;;;;;1999.90;999.90;;;13.20;91.40;;;;;;5083517;28;20024;-77
2023/09/02 02:01:57;;;;;;;1999.90;999.90;;;13.30;91.70;;;;;;5081332;28;20020;-79
2023/09/02 02:04:30;;;;;;;1999.90;999.90;;;13.30;91.70;;;;;;5078081;28;20497;-78
2023/09/02 02:07:00;;;;;;;1999.90;999.90;;;13.20;91.70;;;;;;5082344;28;20032;-78
2023/09/02 02:09:53;;;;;;;1999.90;999.90;;;13.20;91.70;;;;;;5084336;28;20028;-79
2023/09/02 02:12:20;;;;;;;1999.90;999.90;;;13.20;91.60;;;;;;5078858;28;20087;-80
2023/09/02 02:14:46;;;;;;;1999.90;999.90;;;13.20;91.50;;;;;;5082510;28;20078;-78
2023/09/02 02:17:13;;;;;;;1999.90;999.90;;;13.10;91.40;;;;;;5084008;28;20398;-79
2023/09/02 02:19:39;;;;;;;1999.90;999.90;;;13.10;91.90;;;;;;5082862;28;20181;-77
2023/09/02 02:22:05;;;;;;;1999.90;999.90;;;13.10;92.20;;;;;;5084880;28;20119;-78
2023/09/02 02:24:30;;;;;;;1999.90;999.90;;;13.10;92.20;;;;;;5085518;28;20050;-77
2023/09/02 02:26:56;;;;;;;1999.90;999.90;;;13.00;92.30;;;;;;5083109;28;20033;-81
2023/09/02 02:29:22;;;;;;;1999.90;999.90;;;13.00;92.30;;;;;;5081875;28;20470;-80
2023/09/02 02:31:48;;;;;;;1999.90;999.90;;;12.90;92.40;;;;;;5082458;28;20024;-79
2023/09/02 02:34:14;;;;;;;1999.90;999.90;;;12.90;92.50;;;;;;5085818;28;20032;-76
2023/09/02 02:36:40;;;;;;;1999.90;999.90;;;12.90;92.50;;;;;;5084862;28;20039;-78
2023/09/02 02:39:06;;;;;;;1999.90;999.90;;;12.80;92.60;;;;;;5083058;28;20497;-80
2023/09/02 02:41:32;;;;;;;1999.90;999.90;;;12.80;92.70;;;;;;5085216;28;20151;-79
2023/09/02 02:44:00;;;;;;;1999.90;999.90;;;12.90;92.60;;;;;;5081665;28;20154;-78
2023/09/02 02:46:26;;;;;;;1999.90;999.90;;;12.90;92.80;;;;;;5075809;28;20036;-79
2023/09/02 02:48:52;;;;;;;1999.90;999.90;;;12.90;93.00;;;;;;5076395;28;20029;-78
2023/09/02 02:51:18;;;;;;;1999.90;999.90;;;12.80;93.00;;;;;;5078886;28;20044;-76
2023/09/02 02:53:44;;;;;;;1999.90;999.90;;;12.80;92.80;;;;;;5034635;28;1128606;-79
2023/09/02 02:56:10;;;;;;;1999.90;999.90;;;12.80;92.90;;;;;;5081298;28;20060;-78
2023/09/02 02:58:36;;;;;;;1999.90;999.90;;;12.80;92.80;;;;;;5082457;28;20079;-79
2023/09/02 03:01:07;;;;;;;1999.90;999.90;;;12.80;92.70;;;;;;5080615;28;20032;-76
2023/09/02 03:03:34;;;;;;;1999.90;999.90;;;12.70;92.70;;;;;;5081168;28;20039;-77
2023/09/02 03:06:04;;;;;;;1999.90;999.90;;;12.60;92.60;;;;;;5082664;28;20024;-77
2023/09/02 03:08:30;;;;;;;1999.90;999.90;;;12.60;92.50;;;;;;5080638;28;20044;-78
2023/09/02 03:10:57;;;;;;;1999.90;999.90;;;12.60;92.50;;;;;;5081141;28;20510;-79
2023/09/02 03:13:25;;;;;;;1999.90;999.90;;;12.70;92.30;;;;;;5083005;28;20165;-78
2023/09/02 03:15:53;;;;;;;1999.90;999.90;;;12.70;92.40;;;;;;5080365;28;20035;-78
2023/09/02 03:18:19;;;;;;;1999.90;999.90;;;12.70;92.40;;;;;;5082072;28;20028;-79
2023/09/02 03:20:45;;;;;;;1999.90;999.90;;;12.70;92.40;;;;;;5083620;28;20043;-77
2023/09/02 03:23:11;;;;;;;1999.90;999.90;;;12.70;92.30;;;;;;5081605;28;20043;-78
2023/09/02 03:25:37;;;;;;;1999.90;999.90;;;12.60;92.70;;;;;;5078381;28;20398;-78
2023/09/02 03:28:04;;;;;;;1999.90;999.90;;;12.60;92.90;;;;;;5081358;28;20036;-78
2023/09/02 03:30:30;;;;;;;1999.90;999.90;;;12.60;93.10;;;;;;5085073;28;20039;-79
2023/09/02 03:32:56;;;;;;;1999.90;999.90;;;12.60;92.90;;;;;;5077600;28;20561;-78
2023/09/02 03:35:21;;;;;;;1999.90;999.90;;;12.60;93.10;;;;;;5086193;28;20035;-78
2023/09/02 03:37:47;;;;;;;1999.90;999.90;;;12.50;93.00;;;;;;5083080;28;20043;-79
2023/09/02 03:40:13;;;;;;;1999.90;999.90;;;12.40;92.90;;;;;;5084082;28;20032;-80
2023/09/02 03:42:38;;;;;;;1999.90;999.90;;;12.40;92.80;;;;;;5082282;28;20036;-78
2023/09/02 03:45:04;;;;;;;1999.90;999.90;;;12.30;92.80;;;;;;5085303;28;20058;-77
2023/09/02 03:47:31;;;;;;;1999.90;999.90;;;12.30;92.60;;;;;;5079689;28;20173;-78
2023/09/02 03:49:57;;;;;;;1999.90;999.90;;;12.30;92.50;;;;;;5085502;28;20074;-79
2023/09/02 03:52:23;;;;;;;1999.90;999.90;;;12.40;92.50;;;;;;5080379;28;20041;-78
2023/09/02 03:54:48;;;;;;;1999.90;999.90;;;12.40;92.60;;;;;;5081103;28;20094;-79
2023/09/02 03:57:14;;;;;;;1999.90;999.90;;;12.30;92.40;;;;;;5081127;28;20036;-76
2023/09/02 03:59:40;;;;;;;1999.90;999.90;;;12.30;92.40;;;;;;5083906;28;20032;-78
2023/09/02 04:02:05;;;;;;;1999.90;999.90;;;12.20;92.40;;;;;;5082699;28;20514;-78
2023/09/02 04:04:31;;;;;;;1999.90;999.90;;;12.30;92.50;;;;;;5082986;28;20119;-79
2023/09/02 04:06:57;;;;;;;1999.90;999.90;;;12.20;92.70;;;;;;5081128;28;20040;-79
2023/09/02 04:09:22;;;;;;;1999.90;999.90;;;12.30;92.20;;;;;;5080464;28;20107;-78
2023/09/02 04:11:48;;;;;;;1999.90;999.90;;;12.20;92.10;;;;;;5086567;28;20032;-77
2023/09/02 04:14:13;;;;;;;1999.90;999.90;;;12.20;92.10;;;;;;5082568;28;20032;-79
2023/09/02 04:16:39;;;;;;;1999.90;999.90;;;12.30;92.20;;;;;;5083197;28;20028;-78
2023/09/02 04:19:05;;;;;;;1999.90;999.90;;;12.30;92.30;;;;;;5084705;28;20032;-78
2023/09/02 04:21:31;;;;;;;1999.90;999.90;;;12.20;92.20;;;;;;5082989;28;20040;-79
2023/09/02 04:23:56;;;;;;;1999.90;999.90;;;12.20;92.20;;;;;;5083032;28;20044;-78
2023/09/02 04:26:22;;;;;;;1999.90;999.90;;;12.20;92.20;;;;;;5080122;28;20047;-78
2023/09/02 04:28:49;;;;;;;1999.90;999.90;;;12.30;92.20;;;;;;5084298;28;20032;-79
2023/09/02 04:31:15;;;;;;;1999.90;999.90;;;12.20;92.20;;;;;;5079814;28;20085;-78
2023/09/02 04:33:40;;;;;;;1999.90;999.90;;;12.20;92.30;;;;;;5083174;28;20044;-76
2023/09/02 04:36:06;;;;;;;1999.90;999.90;;;12.10;92.30;;;;;;5088552;28;20036;-76
2023/09/02 04:38:32;;;;;;;1999.90;999.90;;;12.20;92.70;;;;;;5081832;28;20047;-80
2023/09/02 04:41:04;;;;;;;1999.90;999.90;;;12.20;92.70;;;;;;5088559;28;20028;-79
2023/09/02 04:43:29;;;;;;;1999.90;999.90;;;12.20;92.70;;;;;;5081341;28;20035;-76
2023/09/02 04:46:01;;;;;;;1999.90;999.90;;;12.20;92.60;;;;;;5085247;28;20492;-78
2023/09/02 04:48:27;;;;;;;1999.90;999.90;;;12.20;92.50;;;;;;5085104;28;20165;-78
2023/09/02 04:50:55;;;;;;;1999.90;999.90;;;12.20;92.80;;;;;;5085434;28;20118;-79
2023/09/02 04:53:22;;;;;;;1999.90;999.90;;;12.20;92.60;;;;;;5082903;28;20497;-79
2023/09/02 04:55:49;;;;;;;1999.90;999.90;;;12.20;92.70;;;;;;5082689;28;20027;-76
2023/09/02 04:58:16;;;;;;;1999.90;999.90;;;12.30;92.80;;;;;;5083477;28;20036;-78
2023/09/02 05:00:42;;;;;;;1999.90;999.90;;;12.30;92.90;;;;;;5081191;28;20426;-78
2023/09/02 05:03:11;;;;;;;1999.90;999.90;;;12.40;92.90;;;;;;5086412;28;20035;-77
2023/09/02 05:05:36;;;;;;;1999.90;999.90;;;12.40;92.80;;;;;;5080966;28;20597;-78
2023/09/02 05:08:03;;;;;;;1999.90;999.90;;;12.50;92.60;;;;;;5077145;28;20036;-76
2023/09/02 05:10:29;;;;;;;1999.90;999.90;;;12.60;92.40;;;;;;5080648;28;20025;-77
2023/09/02 05:12:55;;;;;;;1999.90;999.90;;;12.50;92.40;;;;;;5084337;28;20028;-76
2023/09/02 05:15:20;;;;;;;1999.90;999.90;;;12.60;92.60;;;;;;5080003;28;20051;-78
2023/09/02 05:17:46;;;;;;;1999.90;999.90;;;12.80;92.70;;;;;;5079521;28;20040;-77
2023/09/02 05:20:12;;;;;;;1999.90;999.90;;;12.70;92.40;;;;;;5082040;28;20478;-78
2023/09/02 05:22:38;;;;;;;1999.90;999.90;;;12.70;92.50;;;;;;5078359;28;20412;-78
2023/09/02 05:25:04;;;;;;;1999.90;999.90;;;12.80;92.60;;;;;;5078018;28;20067;-80
2023/09/02 05:27:30;;;;;;;1999.90;999.90;;;12.80;92.60;;;;;;5084896;28;20035;-78
2023/09/02 05:29:56;;;;;;;1999.90;999.90;;;12.80;92.60;;;;;;5083529;28;20514;-79
2023/09/02 05:32:22;;;;;;;1999.90;999.90;;;12.90;92.70;;;;;;5076903;28;20024;-79
2023/09/02 05:34:48;;;;;;;1999.90;999.90;;;12.90;92.70;;;;;;5081780;28;20490;-80
2023/09/02 05:37:13;;;;;;;1999.90;999.90;;;13.00;92.60;;;;;;5080389;28;20130;-78
2023/09/02 05:39:39;;;;;;;1999.90;999.90;;;13.00;92.90;;;;;;5074273;28;20075;-78
2023/09/02 05:42:05;;;;;;;1999.90;999.90;;;13.10;92.90;;;;;;5075413;28;20033;-77
2023/09/02 05:44:34;;;;;;;1999.90;999.90;;;13.20;92.80;;;;;;5082266;28;20028;-77
2023/09/02 05:47:00;;;;;;;1999.90;999.90;;;13.30;92.70;;;;;;5082324;28;20024;-78
2023/09/02 05:49:25;;;;;;;1999.90;999.90;;;13.30;92.70;;;;;;5082127;28;20090;-77
2023/09/02 05:51:51;;;;;;;1999.90;999.90;;;13.40;92.80;;;;;;5078736;28;20024;-78
2023/09/02 05:54:17;;;;;;;1999.90;999.90;;;13.40;92.70;;;;;;5076132;28;20530;-77
2023/09/02 05:56:42;;;;;;;1999.90;999.90;;;13.50;92.60;;;;;;5080933;28;20474;-78
2023/09/02 05:59:08;;;;;;;1999.90;999.90;;;13.60;92.70;;;;;;5085581;28;20028;-80
2023/09/02 06:01:33;;;;;;;1999.90;999.90;;;13.70;92.70;;;;;;5077227;28;20032;-80
2023/09/02 06:03:59;;;;;;;1999.90;999.90;;;13.80;92.60;;;;;;5074235;28;20028;-78
2023/09/02 06:06:25;;;;;;;1999.90;999.90;;;14.00;92.50;;;;;;5075472;28;20040;-77
2023/09/02 06:08:53;;;;;;;1999.90;999.90;;;14.00;92.20;;;;;;5082415;28;20024;-78
2023/09/02 06:11:19;;;;;;;1999.90;999.90;;;14.20;92.40;;;;;;5082855;28;20036;-77
2023/09/02 06:13:45;;;;;;;1999.90;999.90;;;14.30;92.20;;;;;;5077869;28;20539;-77
2023/09/02 06:16:10;;;;;;;1999.90;999.90;;;14.40;92.20;;;;;;5081043;28;20539;-77
2023/09/02 06:18:36;;;;;;;1999.90;999.90;;;14.50;92.20;;;;;;5079540;28;20043;-79
2023/09/02 06:21:12;;;;;;;1999.90;999.90;;;14.60;92.00;;;;;;5078971;28;20434;-77
2023/09/02 06:23:40;;;;;;;1999.90;999.90;;;14.70;91.80;;;;;;5073900;28;20123;-77
2023/09/02 06:26:06;;;;;;;1999.90;999.90;;;14.80;91.70;;;;;;5079372;28;20032;-78
2023/09/02 06:28:33;;;;;;;1999.90;999.90;;;14.90;92.20;;;;;;5078092;28;20043;-78
2023/09/02 06:31:04;;;;;;;1999.90;999.90;;;15.00;92.40;;;;;;5081670;28;20036;-77
2023/09/02 06:33:29;;;;;;;;;;;15.00;92.60;;;;;;5078547;28;20032;-77
2023/09/02 06:35:55;;;;;;;1999.90;999.90;;;15.10;92.80;;;;;;5083111;28;19962;-75
2023/09/02 06:38:20;;;;;;;1999.90;999.90;;;15.30;92.20;;;;;;5073167;28;20108;-77
2023/09/02 06:40:46;;;;;;;1999.90;999.90;;;15.40;92.40;;;;;;5077017;28;20733;-77
2023/09/02 06:43:12;;;;;;;1999.90;999.90;;;15.50;92.10;;;;;;5080701;28;20428;-77
2023/09/02 06:45:38;;;;;;;1999.90;999.90;;;15.50;91.80;;;;;;5085544;28;20085;-76
2023/09/02 06:48:04;;;;;;;1999.90;999.90;;;15.60;91.40;;;;;;5078472;28;20035;-77
2023/09/02 06:50:29;;;;;;;1999.90;999.90;;;15.80;90.90;;;;;;5079711;28;20055;-75
2023/09/02 06:52:55;;;;;;;1999.90;999.90;;;15.80;91.60;;;;;;5075725;28;20463;-78
2023/09/02 06:55:21;;;;;;;1999.90;999.90;;;15.80;91.40;;;;;;5081797;28;20460;-77
2023/09/02 06:57:46;;;;;;;1999.90;999.90;;;15.90;91.40;;;;;;5079062;28;20105;-76
2023/09/02 07:00:13;;;;;;;1999.90;999.90;;;16.10;91.30;;;;;;5077915;28;20501;-76
2023/09/02 07:02:39;;;;;;;1999.90;999.90;;;16.20;91.20;;;;;;5077673;28;20071;-76
2023/09/02 07:05:05;;;;;;;1999.90;999.90;;;16.30;90.80;;;;;;5083618;28;20032;-75
2023/09/02 07:07:31;;;;;;;1999.90;999.90;;;16.40;90.90;;;;;;5081167;28;20117;-75
2023/09/02 07:09:57;;;;;;;1999.90;999.90;;;16.50;90.70;;;;;;5086093;28;20028;-75
2023/09/02 07:12:24;;;;;;;1999.90;999.90;;;16.60;90.20;;;;;;5089585;28;20091;-75
2023/09/02 07:14:50;;;;;;;1999.90;999.90;;;16.60;90.50;;;;;;5084159;28;20032;-75
2023/09/02 07:17:15;;;;;;;1999.90;999.90;;;16.70;90.00;;;;;;5080470;28;20548;-75
2023/09/02 07:19:41;;;;;;;1999.90;999.90;;;16.90;89.90;;;;;;5081787;28;20028;-75
2023/09/02 07:22:06;;;;;;;1999.90;999.90;;;17.00;88.90;;;;;;5081115;28;20501;-75
2023/09/02 07:24:32;;;;;;;1999.90;999.90;;;17.10;88.30;;;;;;5082716;28;20560;-75
2023/09/02 07:26:58;;;;;;;1999.90;999.90;;;17.30;88.70;;;;;;5082701;28;20032;-74
2023/09/02 07:29:23;;;;;;;1999.90;999.90;;;17.50;87.20;;;;;;5086000;28;20090;-74
2023/09/02 07:31:49;;;;;;;1999.90;999.90;;;17.60;87.10;;;;;;5086742;28;20487;-75
2023/09/02 07:34:15;;;;;;;1999.90;999.90;;;17.60;85.50;;;;;;5085981;28;20029;-74
2023/09/02 07:36:42;;;;;;;1999.90;999.90;;;17.70;85.50;;;;;;5082203;28;20360;-74
2023/09/02 07:39:08;;;;;;;1999.90;999.90;;;17.80;84.80;;;;;;5083290;28;20038;-74
2023/09/02 07:41:34;;;;;;;1999.90;999.90;;;17.90;85.70;;;;;;5077493;28;20028;-73
2023/09/02 07:43:59;;;;;;;1999.90;999.90;;;18.00;85.60;;;;;;5081563;28;20032;-74
2023/09/02 07:46:25;;;;;;;1999.90;999.90;;;18.10;83.50;;;;;;5077750;28;20025;-75
2023/09/02 07:48:51;;;;;;;1999.90;999.90;;;18.30;84.60;;;;;;5074100;28;20040;-75
2023/09/02 07:51:17;;;;;;;1999.90;999.90;;;18.30;82.80;;;;;;5085304;28;20028;-78
2023/09/02 07:53:46;;;;;;;1999.90;999.90;;;18.40;82.50;;;;;;5081965;28;20046;-79
2023/09/02 07:56:12;;;;;;;1999.90;999.90;;;18.60;83.00;;;;;;5083478;28;20422;-78
2023/09/02 07:58:37;;;;;;;1999.90;999.90;;;18.60;82.20;;;;;;5082222;28;20035;-78
2023/09/02 08:01:03;;;;;;;1999.90;999.90;;;18.70;81.90;;;;;;5075835;28;20115;-78
2023/09/02 08:03:29;;;;;;;1999.90;999.90;;;19.20;81.20;;;;;;5080927;28;20039;-79
2023/09/02 08:05:55;;;;;;;1999.90;999.90;;;19.20;78.80;;;;;;5077366;28;20583;-79
2023/09/02 08:08:21;;;;;;;1999.90;999.90;;;19.30;78.30;;;;;;5078635;28;20109;-79
2023/09/02 08:10:47;;;;;;;1999.90;999.90;;;19.50;77.40;;;;;;5081452;28;20093;-78
2023/09/02 08:13:13;;;;;;;1999.90;999.90;;;19.70;76.20;;;;;;5081053;28;20036;-76
2023/09/02 08:15:39;;;;;;;1999.90;999.90;;;19.90;75.40;;;;;;5077229;28;20025;-75
2023/09/02 08:18:05;;;;;;;1999.90;999.90;;;20.00;73.20;;;;;;5086062;28;20078;-78
2023/09/02 08:20:31;;;;;;;1999.90;999.90;;;20.30;75.70;;;;;;5079700;28;20192;-77
2023/09/02 08:22:57;;;;;;;1999.90;999.90;;;20.20;73.10;;;;;;5078928;28;20563;-78
2023/09/02 08:25:23;;;;;;;1999.90;999.90;;;20.60;71.80;;;;;;5080587;28;20105;-79
2023/09/02 08:27:48;;;;;;;1999.90;999.90;;;20.70;69.40;;;;;;5083512;28;20499;-75
2023/09/02 08:30:15;;;;;;;1999.90;999.90;;;20.80;69.10;;;;;;5082264;28;20462;-75
2023/09/02 08:32:41;;;;;;;1999.90;999.90;;;21.00;67.80;;;;;;5082279;28;20074;-75
2023/09/02 08:35:08;;;;;;;1999.90;999.90;;;21.20;70.80;;;;;;5076839;28;20064;-76
2023/09/02 08:37:34;;;;;;;1999.90;999.90;;;21.30;69.00;;;;;;5076464;28;20041;-75
2023/09/02 08:40:01;;;;;;;1999.90;999.90;;;21.50;67.10;;;;;;5081389;28;20044;-75
2023/09/02 08:42:27;;;;;;;1999.90;999.90;;;21.50;67.90;;;;;;5079612;28;20032;-75
2023/09/02 08:44:55;;;;;;;1999.90;999.90;;;21.70;69.70;;;;;;5081943;28;20111;-76
2023/09/02 08:47:21;;;;;;;1999.90;999.90;;;21.60;66.90;;;;;;5077644;28;20060;-75
2023/09/02 08:49:49;;;;;;;1999.90;999.90;;;21.80;65.00;;;;;;5078928;28;20550;-79
2023/09/02 08:52:15;;;;;;;1999.90;999.90;;;22.10;63.60;;;;;;5080570;28;20021;-74
2023/09/02 08:54:41;;;;;;;1999.90;999.90;;;22.00;66.40;;;;;;5079914;28;20052;-74
2023/09/02 08:57:10;;;;;;;1999.90;999.90;;;22.10;63.70;;;;;;5078926;28;20044;-75
2023/09/02 08:59:36;;;;;;;1999.90;999.90;;;22.30;66.10;;;;;;5083490;28;20032;-75
2023/09/02 09:02:03;;;;;;;1999.90;999.90;;;22.40;64.30;;;;;;5079445;28;20675;-75
2023/09/02 09:04:36;;;;;;;1999.90;999.90;;;22.60;64.60;;;;;;5082343;28;20036;-74
2023/09/02 09:07:04;;;;;;;1999.90;999.90;;;22.60;61.50;;;;;;5082564;28;20036;-74
2023/09/02 09:09:36;;;;;;;1999.90;999.90;;;22.80;61.00;;;;;;5083272;28;20085;-74
2023/09/02 09:12:03;;;;;;;1999.90;999.90;;;22.60;61.20;;;;;;5079817;28;20086;-74
2023/09/02 09:14:31;;;;;;;1999.90;999.90;;;22.70;57.80;;;;;;5083328;28;20028;-74
2023/09/02 09:16:59;;;;;;;1999.90;999.90;;;22.50;58.00;;;;;;5082690;28;20410;-73
2023/09/02 09:19:28;;;;;;;1999.90;999.90;;;22.80;58.90;;;;;;5084456;28;20047;-74
2023/09/02 09:21:55;;;;;;;1999.90;999.90;;;23.00;57.60;;;;;;5084800;28;20084;-74
2023/09/02 09:24:21;;;;;;;1999.90;999.90;;;23.40;56.80;;;;;;5084225;28;20034;-74
2023/09/02 09:26:49;;;;;;;1999.90;999.90;;;23.70;58.70;;;;;;5081308;28;20040;-74
2023/09/02 09:29:20;;;;;;;1999.90;999.90;;;23.50;58.20;;;;;;5081735;28;20035;-74
2023/09/02 09:31:48;;;;;;;1999.90;999.90;;;23.60;59.00;;;;;;5082107;28;20028;-74
2023/09/02 09:34:14;;;;;;;1999.90;999.90;;;23.80;56.60;;;;;;5085256;28;20137;-76
2023/09/02 09:36:39;;;;;;;1999.90;999.90;;;24.00;54.40;;;;;;5086383;28;20032;-77
2023/09/02 09:39:06;;;;;;;1999.90;999.90;;;24.20;54.30;;;;;;5082553;28;20111;-77
2023/09/02 09:41:33;;;;;;;1999.90;999.90;;;24.20;53.20;;;;;;5086796;28;20032;-77
2023/09/02 09:44:02;;;;;;;1999.90;999.90;;;24.40;57.60;;;;;;5083046;28;20060;-77
2023/09/02 09:46:28;;;;;;;1999.90;999.90;;;24.40;54.90;;;;;;5087259;28;20493;-77
2023/09/02 09:49:00;;;;;;;1999.90;999.90;;;24.40;56.70;;;;;;5085253;28;20039;-77
2023/09/02 09:51:27;;;;;;;1999.90;999.90;;;24.50;53.00;;;;;;5085848;28;20051;-77
2023/09/02 09:53:53;;;;;;;1999.90;999.90;;;24.40;52.90;;;;;;5085598;28;20413;-77
2023/09/02 09:56:19;;;;;;;1999.90;999.90;;;24.70;56.60;;;;;;5079059;28;20318;-77
2023/09/02 09:58:48;;;;;;;1999.90;999.90;;;25.00;50.70;;;;;;5085137;28;20542;-79
2023/09/02 10:01:24;;;;;;;1999.90;999.90;;;25.00;49.00;;;;;;5081319;28;20055;-80
2023/09/02 10:03:51;;;;;;;1999.90;999.90;;;25.00;51.70;;;;;;5084224;28;20035;-79
2023/09/02 10:06:18;;;;;;;1999.90;999.90;;;25.00;49.80;;;;;;5082810;28;20039;-79
2023/09/02 10:08:53;;;;;;;1999.90;999.90;;;25.40;48.50;;;;;;5079622;28;20512;-77
2023/09/02 10:11:23;;;;;;;1999.90;999.90;;;25.50;52.30;;;;;;5086583;28;20040;-77
2023/09/02 10:13:51;;;;;;;1999.90;999.90;;;25.80;49.50;;;;;;5084039;28;20016;-76
2023/09/02 10:16:18;;;;;;;1999.90;999.90;;;25.80;46.30;;;;;;5083416;28;20085;-77
2023/09/02 10:18:46;;;;;;;1999.90;999.90;;;26.00;45.00;;;;;;5082858;28;20032;-76
2023/09/02 10:21:14;;;;;;;1999.90;999.90;;;26.20;48.50;;;;;;5085189;28;20498;-79
2023/09/02 10:23:54;;;;;;;1999.90;999.90;;;26.40;45.80;;;;;;5085173;28;20126;-79
2023/09/02 10:26:35;;;;;;;1999.90;999.90;;;26.30;42.40;;;;;;5080486;28;20066;-79
2023/09/02 10:29:07;;;;;;;1999.90;999.90;;;26.00;44.60;;;;;;5082887;28;20032;-79
2023/09/02 10:31:40;;;;;;;1999.90;999.90;;;25.90;44.80;;;;;;5083826;28;20024;-79
2023/09/02 10:34:16;;;;;;;1999.90;999.90;;;26.30;47.10;;;;;;5081286;28;20107;-78
2023/09/02 10:36:52;;;;;;;1999.90;999.90;;;26.30;46.80;;;;;;5085145;28;20059;-78
2023/09/02 10:39:30;;;;;;;1999.90;999.90;;;26.50;44.50;;;;;;5088520;28;20087;-78
2023/09/02 10:41:57;;;;;;;1999.90;999.90;;;26.60;46.80;;;;;;5082896;28;20060;-78
2023/09/02 10:44:25;;;;;;;1999.90;999.90;;;26.60;42.50;;;;;;5083927;28;20024;-78
2023/09/02 10:46:52;;;;;;;1999.90;999.90;;;26.70;40.90;;;;;;5089894;28;20043;-78
2023/09/02 10:49:18;;;;;;;1999.90;999.90;;;27.00;40.70;;;;;;5086223;28;20078;-78
2023/09/02 10:51:44;;;;;;;1999.90;999.90;;;27.10;47.90;;;;;;5089998;28;20373;-78
2023/09/02 10:54:10;;;;;;;1999.90;999.90;;;27.80;40.80;;;;;;5081803;28;20502;-78
2023/09/02 10:56:36;;;;;;;1999.90;999.90;;;28.00;39.20;;;;;;5087012;28;20032;-78
2023/09/02 10:59:04;;;;;;;1999.90;999.90;;;28.70;37.50;;;;;;5083724;28;20405;-78
2023/09/02 11:01:47;;;;;;;1999.90;999.90;;;28.90;34.80;;;;;;5088188;28;20436;-78
2023/09/02 11:04:13;;;;;;;1999.90;999.90;;;28.60;35.20;;;;;;5086209;28;20040;-78
2023/09/02 11:07:16;;;;;;;1999.90;999.90;;;29.50;35.10;;;;;;5085108;28;20036;-78
2023/09/02 11:09:56;;;;;;;1999.90;999.90;;;29.60;33.60;;;;;;5081104;28;21358;-78
2023/09/02 11:12:22;;;;;;;1999.90;999.90;;;30.00;33.50;;;;;;5087259;28;20024;-78
2023/09/02 11:15:07;;;;;;;1999.90;999.90;;;30.80;33.50;;;;;;5084185;28;20048;-78
2023/09/02 11:17:34;;;;;;;1999.90;999.90;;;30.50;32.70;;;;;;5087647;28;20031;-78
2023/09/02 11:20:06;;;;;;;1999.90;999.90;;;30.50;31.20;;;;;;5085835;28;20043;-78
2023/09/02 11:22:50;;;;;;;1999.90;999.90;;;30.00;33.30;;;;;;5087764;28;20028;-78
2023/09/02 11:25:38;;;;;;;1999.90;999.90;;;31.20;30.90;;;;;;5086661;28;20059;-78
2023/09/02 11:28:13;;;;;;;1999.90;999.90;;;30.90;31.70;;;;;;5088209;28;20023;-78
2023/09/02 11:30:39;;;;;;;1999.90;999.90;;;30.70;33.90;;;;;;5080991;28;20448;-78
2023/09/02 11:33:06;;;;;;;1999.90;999.90;;;31.70;30.70;;;;;;5086111;28;20024;-78
2023/09/02 11:35:37;;;;;;;1999.90;999.90;;;31.10;31.90;;;;;;5089165;28;20035;-78
2023/09/02 11:38:16;;;;;;;1999.90;999.90;;;30.90;31.50;;;;;;5085547;28;20071;-78
2023/09/02 11:40:41;;;;;;;1999.90;999.90;;;31.00;32.30;;;;;;5087081;28;20043;-78
2023/09/02 11:43:07;;;;;;;1999.90;999.90;;;30.30;33.60;;;;;;5084815;28;20036;-78
2023/09/02 11:45:35;;;;;;;1999.90;999.90;;;31.00;33.90;;;;;;5086604;28;20390;-78
2023/09/02 11:48:06;;;;;;;1999.90;999.90;;;31.60;32.90;;;;;;5087078;28;20036;-78
2023/09/02 11:50:32;;;;;;;1999.90;999.90;;;31.90;31.40;;;;;;5085636;28;20520;-78
2023/09/02 11:52:58;;;;;;;1999.90;999.90;;;31.30;29.10;;;;;;5087986;28;20032;-78
2023/09/02 11:55:25;;;;;;;1999.90;999.90;;;32.70;30.80;;;;;;5085134;28;20058;-78
2023/09/02 11:57:51;;;;;;;1999.90;999.90;;;32.60;29.60;;;;;;5084984;28;20031;-78
2023/09/02 12:00:22;;;;;;;1999.90;999.90;;;32.90;27.80;;;;;;5089522;28;20061;-78